sensor_id;sensor_type;location;lat;lon;timestamp;pressure;altitude;pressure_sealevel;temperature;humidity
21182;BME280;10749;46.296;7.524;2023-03-21T00:01:26;95158.69;;;11.63;45.86
21182;BME280;10749;46.296;7.524;2023-03-21T00:03:51;95163.53;;;11.59;45.74
21182;BME280;10749;46.296;7.524;2023-03-21T00:06:17;95169.81;;;11.58;45.71
21182;BME280;10749;46.296;7.524;2023-03-21T00:08:42;95164.16;;;11.61;46.00
21182;BME280;10749;46.296;7.524;2023-03-21T00:11:10;95158.84;;;11.61;45.80
21182;BME280;10749;46.296;7.524;2023-03-21T00:13:36;95162.88;;;11.57;45.78
21182;BME280;10749;46.296;7.524;2023-03-21T00:16:07;95162.94;;;11.49;45.86
21182;BME280;10749;46.296;7.524;2023-03-21T00:18:34;95164.66;;;11.42;46.02
21182;BME280;10749;46.296;7.524;2023-03-21T00:21:06;95162.28;;;11.47;46.15
21182;BME280;10749;46.296;7.524;2023-03-21T00:23:33;95154.63;;;11.52;45.72
21182;BME280;10749;46.296;7.524;2023-03-21T00:25:58;95161.09;;;11.49;46.11
21182;BME280;10749;46.296;7.524;2023-03-21T00:28:24;95160.63;;;11.46;46.20
21182;BME280;10749;46.296;7.524;2023-03-21T00:30:50;95157.69;;;11.41;45.95
21182;BME280;10749;46.296;7.524;2023-03-21T00:33:16;95150.63;;;11.33;46.24
21182;BME280;10749;46.296;7.524;2023-03-21T00:35:45;95148.59;;;11.35;45.95
21182;BME280;10749;46.296;7.524;2023-03-21T00:38:12;95145.78;;;11.37;46.36
21182;BME280;10749;46.296;7.524;2023-03-21T00:40:38;95146.50;;;11.31;46.35
21182;BME280;10749;46.296;7.524;2023-03-21T00:43:03;95146.50;;;11.31;46.44
21182;BME280;10749;46.296;7.524;2023-03-21T00:45:29;95148.81;;;11.34;46.28
21182;BME280;10749;46.296;7.524;2023-03-21T00:47:55;95153.13;;;11.27;46.32
21182;BME280;10749;46.296;7.524;2023-03-21T00:50:21;95145.09;;;11.20;46.27
21182;BME280;10749;46.296;7.524;2023-03-21T00:52:46;95149.13;;;11.08;46.30
21182;BME280;10749;46.296;7.524;2023-03-21T00:55:16;95146.97;;;11.11;46.20
21182;BME280;10749;46.296;7.524;2023-03-21T00:57:41;95136.59;;;11.02;46.68
21182;BME280;10749;46.296;7.524;2023-03-21T01:00:10;95132.09;;;11.02;46.37
21182;BME280;10749;46.296;7.524;2023-03-21T01:02:36;95131.53;;;10.92;46.76
21182;BME280;10749;46.296;7.524;2023-03-21T01:05:03;95137.94;;;10.98;46.76
21182;BME280;10749;46.296;7.524;2023-03-21T01:07:28;95132.94;;;11.03;46.62
21182;BME280;10749;46.296;7.524;2023-03-21T01:09:54;95138.13;;;10.96;46.75
21182;BME280;10749;46.296;7.524;2023-03-21T01:12:19;95131.28;;;11.02;46.37
21182;BME280;10749;46.296;7.524;2023-03-21T01:14:44;95126.34;;;10.99;46.67
21182;BME280;10749;46.296;7.524;2023-03-21T01:17:10;95123.53;;;11.00;46.54
21182;BME280;10749;46.296;7.524;2023-03-21T01:19:35;95122.75;;;10.92;46.42
21182;BME280;10749;46.296;7.524;2023-03-21T01:22:00;95125.88;;;10.95;46.60
21182;BME280;10749;46.296;7.524;2023-03-21T01:24:26;95118.09;;;10.94;46.79
21182;BME280;10749;46.296;7.524;2023-03-21T01:26:51;95122.56;;;10.93;46.76
21182;BME280;10749;46.296;7.524;2023-03-21T01:29:16;95119.28;;;10.91;46.78
21182;BME280;10749;46.296;7.524;2023-03-21T01:31:42;95125.41;;;10.92;46.61
21182;BME280;10749;46.296;7.524;2023-03-21T01:34:07;95120.94;;;10.92;46.67
21182;BME280;10749;46.296;7.524;2023-03-21T01:36:32;95115.16;;;10.89;46.37
21182;BME280;10749;46.296;7.524;2023-03-21T01:38:58;95110.56;;;10.83;46.49
21182;BME280;10749;46.296;7.524;2023-03-21T01:41:32;95115.44;;;10.71;46.36
21182;BME280;10749;46.296;7.524;2023-03-21T01:43:57;95108.31;;;10.72;46.60
21182;BME280;10749;46.296;7.524;2023-03-21T01:49:12;95107.56;;;10.55;46.60
21182;BME280;10749;46.296;7.524;2023-03-21T01:51:43;95105.56;;;10.57;46.46
21182;BME280;10749;46.296;7.524;2023-03-21T01:54:14;95097.97;;;10.54;46.72
21182;BME280;10749;46.296;7.524;2023-03-21T01:56:42;95093.31;;;10.56;46.64
21182;BME280;10749;46.296;7.524;2023-03-21T01:59:15;95095.38;;;10.46;46.82
21182;BME280;10749;46.296;7.524;2023-03-21T02:01:46;95093.41;;;10.40;46.77
21182;BME280;10749;46.296;7.524;2023-03-21T02:04:11;95092.38;;;10.49;47.02
21182;BME280;10749;46.296;7.524;2023-03-21T02:06:43;95092.03;;;10.52;46.76
21182;BME280;10749;46.296;7.524;2023-03-21T02:09:14;95090.03;;;10.54;47.04
21182;BME280;10749;46.296;7.524;2023-03-21T02:11:40;95092.38;;;10.49;47.01
21182;BME280;10749;46.296;7.524;2023-03-21T02:14:13;95094.97;;;10.57;47.24
21182;BME280;10749;46.296;7.524;2023-03-21T02:17:11;95083.09;;;10.53;47.09
21182;BME280;10749;46.296;7.524;2023-03-21T02:23:23;95082.78;;;10.48;47.07
21182;BME280;10749;46.296;7.524;2023-03-21T02:29:01;95078.53;;;10.39;47.19
21182;BME280;10749;46.296;7.524;2023-03-21T02:40:38;95078.03;;;10.43;47.37
21182;BME280;10749;46.296;7.524;2023-03-21T02:43:17;95073.88;;;10.41;47.51
21182;BME280;10749;46.296;7.524;2023-03-21T02:45:51;95071.44;;;10.39;47.56
21182;BME280;10749;46.296;7.524;2023-03-21T02:48:21;95077.72;;;10.38;47.41
21182;BME280;10749;46.296;7.524;2023-03-21T02:50:53;95075.91;;;10.39;47.43
21182;BME280;10749;46.296;7.524;2023-03-21T02:53:24;95072.66;;;10.21;47.48
21182;BME280;10749;46.296;7.524;2023-03-21T02:55:52;95079.13;;;10.18;47.57
21182;BME280;10749;46.296;7.524;2023-03-21T02:58:20;95078.00;;;10.04;47.54
21182;BME280;10749;46.296;7.524;2023-03-21T03:00:48;95075.69;;;10.01;47.78
21182;BME280;10749;46.296;7.524;2023-03-21T03:03:13;95067.81;;;9.85;47.72
21182;BME280;10749;46.296;7.524;2023-03-21T03:05:59;95072.75;;;9.88;47.77
21182;BME280;10749;46.296;7.524;2023-03-21T03:08:41;95071.75;;;9.97;48.02
21182;BME280;10749;46.296;7.524;2023-03-21T03:11:28;95072.34;;;10.07;48.03
21182;BME280;10749;46.296;7.524;2023-03-21T03:14:02;95070.03;;;10.12;47.75
21182;BME280;10749;46.296;7.524;2023-03-21T03:16:43;95065.41;;;10.14;48.03
21182;BME280;10749;46.296;7.524;2023-03-21T03:19:30;95067.91;;;10.00;48.21
21182;BME280;10749;46.296;7.524;2023-03-21T03:22:09;95067.41;;;10.04;48.20
21182;BME280;10749;46.296;7.524;2023-03-21T03:25:00;95067.88;;;10.08;48.11
21182;BME280;10749;46.296;7.524;2023-03-21T03:27:34;95071.38;;;10.00;48.10
21182;BME280;10749;46.296;7.524;2023-03-21T03:30:02;95069.09;;;9.97;48.21
21182;BME280;10749;46.296;7.524;2023-03-21T03:32:48;95070.56;;;10.00;48.12
21182;BME280;10749;46.296;7.524;2023-03-21T03:35:17;95074.66;;;10.02;48.19
21182;BME280;10749;46.296;7.524;2023-03-21T03:37:47;95082.47;;;9.96;48.30
21182;BME280;10749;46.296;7.524;2023-03-21T03:40:21;95080.66;;;9.96;48.52
21182;BME280;10749;46.296;7.524;2023-03-21T03:42:53;95086.25;;;10.01;48.19
21182;BME280;10749;46.296;7.524;2023-03-21T03:45:25;95089.22;;;9.98;48.22
21182;BME280;10749;46.296;7.524;2023-03-21T03:48:20;95094.69;;;10.05;48.44
21182;BME280;10749;46.296;7.524;2023-03-21T03:51:03;95088.72;;;10.03;48.25
21182;BME280;10749;46.296;7.524;2023-03-21T03:55:58;95092.41;;;9.86;48.45
21182;BME280;10749;46.296;7.524;2023-03-21T03:58:24;95092.59;;;9.84;48.18
21182;BME280;10749;46.296;7.524;2023-03-21T04:00:52;95101.50;;;9.83;48.22
21182;BME280;10749;46.296;7.524;2023-03-21T04:03:18;95099.22;;;9.80;48.58
21182;BME280;10749;46.296;7.524;2023-03-21T04:05:43;95101.88;;;9.72;48.59
21182;BME280;10749;46.296;7.524;2023-03-21T04:08:13;95101.53;;;9.67;48.55
21182;BME280;10749;46.296;7.524;2023-03-21T04:10:40;95099.22;;;9.72;48.64
21182;BME280;10749;46.296;7.524;2023-03-21T04:13:06;95092.28;;;9.71;48.71
21182;BME280;10749;46.296;7.524;2023-03-21T04:15:31;95094.59;;;9.66;48.84
21182;BME280;10749;46.296;7.524;2023-03-21T04:17:56;95100.88;;;9.73;48.83
21182;BME280;10749;46.296;7.524;2023-03-21T04:20:22;95098.56;;;9.70;48.80
21182;BME280;10749;46.296;7.524;2023-03-21T04:22:48;95098.56;;;9.70;48.65
21182;BME280;10749;46.296;7.524;2023-03-21T04:25:14;95099.22;;;9.72;48.73
21182;BME280;10749;46.296;7.524;2023-03-21T04:27:39;95101.19;;;9.70;48.55
21182;BME280;10749;46.296;7.524;2023-03-21T04:30:05;95094.78;;;9.64;48.77
21182;BME280;10749;46.296;7.524;2023-03-21T04:32:31;95098.25;;;9.57;48.86
21182;BME280;10749;46.296;7.524;2023-03-21T04:35:01;95100.25;;;9.55;48.67
21182;BME280;10749;46.296;7.524;2023-03-21T04:37:26;95090.66;;;9.46;48.55
21182;BME280;10749;46.296;7.524;2023-03-21T04:39:52;95088.69;;;9.40;48.65
21182;BME280;10749;46.296;7.524;2023-03-21T04:42:17;95089.84;;;9.45;48.93
21182;BME280;10749;46.296;7.524;2023-03-21T04:44:44;95094.63;;;9.50;48.92
21182;BME280;10749;46.296;7.524;2023-03-21T04:47:09;95090.31;;;9.49;48.89
21182;BME280;10749;46.296;7.524;2023-03-21T04:49:37;95094.97;;;9.47;48.99
21182;BME280;10749;46.296;7.524;2023-03-21T04:52:03;95091.00;;;9.51;48.80
21182;BME280;10749;46.296;7.524;2023-03-21T04:54:28;95089.69;;;9.47;49.23
21182;BME280;10749;46.296;7.524;2023-03-21T04:56:54;95087.38;;;9.36;48.92
21182;BME280;10749;46.296;7.524;2023-03-21T04:59:19;95093.31;;;9.13;49.05
21182;BME280;10749;46.296;7.524;2023-03-21T05:01:45;95094.78;;;9.16;48.97
21182;BME280;10749;46.296;7.524;2023-03-21T05:04:12;95093.97;;;9.23;49.26
21182;BME280;10749;46.296;7.524;2023-03-21T05:06:38;95089.34;;;9.34;49.07
21182;BME280;10749;46.296;7.524;2023-03-21T05:09:04;95089.34;;;9.34;49.30
21182;BME280;10749;46.296;7.524;2023-03-21T05:11:31;95078.94;;;9.24;49.11
21182;BME280;10749;46.296;7.524;2023-03-21T05:13:58;95083.59;;;9.30;49.12
21182;BME280;10749;46.296;7.524;2023-03-21T05:16:23;95087.38;;;9.36;49.42
21182;BME280;10749;46.296;7.524;2023-03-21T05:18:53;95085.22;;;9.39;49.28
21182;BME280;10749;46.296;7.524;2023-03-21T05:21:20;95081.09;;;9.37;49.47
21182;BME280;10749;46.296;7.524;2023-03-21T05:23:46;95082.41;;;9.33;49.24
21182;BME280;10749;46.296;7.524;2023-03-21T05:26:19;95085.25;;;9.31;49.43
21182;BME280;10749;46.296;7.524;2023-03-21T05:28:45;95089.34;;;9.34;49.65
21182;BME280;10749;46.296;7.524;2023-03-21T05:31:13;95086.56;;;9.27;49.40
21182;BME280;10749;46.296;7.524;2023-03-21T05:33:41;95090.03;;;9.27;49.59
21182;BME280;10749;46.296;7.524;2023-03-21T05:36:06;95082.75;;;9.30;49.60
21182;BME280;10749;46.296;7.524;2023-03-21T05:38:32;95090.53;;;9.31;49.55
21182;BME280;10749;46.296;7.524;2023-03-21T05:40:57;95085.72;;;9.35;49.41
21182;BME280;10749;46.296;7.524;2023-03-21T05:43:22;95087.22;;;9.29;49.34
21182;BME280;10749;46.296;7.524;2023-03-21T05:45:48;95090.03;;;9.27;49.30
21182;BME280;10749;46.296;7.524;2023-03-21T05:48:13;95092.66;;;9.19;49.45
21182;BME280;10749;46.296;7.524;2023-03-21T05:50:38;95085.56;;;9.28;49.48
21182;BME280;10749;46.296;7.524;2023-03-21T05:53:04;95094.97;;;9.31;49.67
21182;BME280;10749;46.296;7.524;2023-03-21T05:55:29;95092.00;;;9.34;49.32
21182;BME280;10749;46.296;7.524;2023-03-21T05:57:54;95092.66;;;9.36;49.56
21182;BME280;10749;46.296;7.524;2023-03-21T06:00:20;95094.97;;;9.31;49.73
21182;BME280;10749;46.296;7.524;2023-03-21T06:02:46;95098.75;;;9.36;49.59
21182;BME280;10749;46.296;7.524;2023-03-21T06:05:11;95102.91;;;9.39;49.71
21182;BME280;10749;46.296;7.524;2023-03-21T06:07:37;95100.88;;;9.49;49.57
21182;BME280;10749;46.296;7.524;2023-03-21T06:10:03;95098.59;;;9.54;49.54
21182;BME280;10749;46.296;7.524;2023-03-21T06:12:29;95102.53;;;9.50;49.40
21182;BME280;10749;46.296;7.524;2023-03-21T06:14:54;95102.88;;;9.55;49.64
21182;BME280;10749;46.296;7.524;2023-03-21T06:17:20;95109.81;;;9.56;49.57
21182;BME280;10749;46.296;7.524;2023-03-21T06:19:45;95107.81;;;9.58;49.73
21182;BME280;10749;46.296;7.524;2023-03-21T06:22:10;95105.66;;;9.61;49.51
21182;BME280;10749;46.296;7.524;2023-03-21T06:24:36;95107.19;;;9.56;49.64
21182;BME280;10749;46.296;7.524;2023-03-21T06:27:01;95109.13;;;9.62;49.58
21182;BME280;10749;46.296;7.524;2023-03-21T06:29:26;95102.84;;;9.71;49.61
21182;BME280;10749;46.296;7.524;2023-03-21T06:31:52;95100.53;;;9.76;49.55
21182;BME280;10749;46.296;7.524;2023-03-21T06:34:17;95101.50;;;9.83;49.60
21182;BME280;10749;46.296;7.524;2023-03-21T06:36:42;95105.97;;;9.83;49.65
21182;BME280;10749;46.296;7.524;2023-03-21T06:39:09;95106.28;;;9.96;49.69
21182;BME280;10749;46.296;7.524;2023-03-21T06:41:34;95104.59;;;10.03;49.90
21182;BME280;10749;46.296;7.524;2023-03-21T06:44:00;95112.03;;;9.99;49.86
21182;BME280;10749;46.296;7.524;2023-03-21T06:46:26;95112.03;;;9.99;49.52
21182;BME280;10749;46.296;7.524;2023-03-21T06:48:51;95102.94;;;10.10;49.64
21182;BME280;10749;46.296;7.524;2023-03-21T06:51:16;95112.00;;;10.24;49.62
21182;BME280;10749;46.296;7.524;2023-03-21T06:53:42;95107.03;;;10.29;50.01
21182;BME280;10749;46.296;7.524;2023-03-21T06:56:09;95100.22;;;10.34;49.83
21182;BME280;10749;46.296;7.524;2023-03-21T06:58:35;95102.16;;;10.40;49.60
21182;BME280;10749;46.296;7.524;2023-03-21T07:01:01;95108.09;;;10.50;49.69
21182;BME280;10749;46.296;7.524;2023-03-21T07:03:27;95113.34;;;10.58;49.56
21182;BME280;10749;46.296;7.524;2023-03-21T07:05:53;95106.94;;;10.45;49.80
21182;BME280;10749;46.296;7.524;2023-03-21T07:08:19;95115.19;;;10.50;49.51
21182;BME280;10749;46.296;7.524;2023-03-21T07:10:44;95113.25;;;10.36;49.63
21182;BME280;10749;46.296;7.524;2023-03-21T07:13:11;95112.78;;;10.32;49.31
21182;BME280;10749;46.296;7.524;2023-03-21T07:15:36;95115.88;;;10.44;49.48
21182;BME280;10749;46.296;7.524;2023-03-21T07:18:06;95117.13;;;10.56;49.75
21182;BME280;10749;46.296;7.524;2023-03-21T07:20:32;95117.41;;;10.69;49.79
21182;BME280;10749;46.296;7.524;2023-03-21T07:22:57;95107.44;;;10.79;49.79
21182;BME280;10749;46.296;7.524;2023-03-21T07:25:23;95112.81;;;10.94;49.67
21182;BME280;10749;46.296;7.524;2023-03-21T07:27:49;95102.00;;;11.03;49.60
21182;BME280;10749;46.296;7.524;2023-03-21T07:30:14;95113.81;;;11.16;49.41
21182;BME280;10749;46.296;7.524;2023-03-21T07:32:41;95113.22;;;11.28;49.61
21182;BME280;10749;46.296;7.524;2023-03-21T07:35:09;95101.22;;;11.40;49.23
21182;BME280;10749;46.296;7.524;2023-03-21T07:37:36;95104.91;;;11.54;49.36
21182;BME280;10749;46.296;7.524;2023-03-21T07:40:01;95107.78;;;11.67;49.43
21182;BME280;10749;46.296;7.524;2023-03-21T07:42:33;95108.06;;;11.72;48.86
21182;BME280;10749;46.296;7.524;2023-03-21T07:44:58;95107.13;;;11.65;48.84
21182;BME280;10749;46.296;7.524;2023-03-21T07:47:24;95104.09;;;11.68;48.68
21182;BME280;10749;46.296;7.524;2023-03-21T07:49:49;95114.66;;;11.76;48.81
21182;BME280;10749;46.296;7.524;2023-03-21T07:52:15;95116.25;;;11.85;49.04
21182;BME280;10749;46.296;7.524;2023-03-21T07:54:40;95105.56;;;11.93;48.84
21182;BME280;10749;46.296;7.524;2023-03-21T07:57:06;95112.13;;;11.97;49.01
21182;BME280;10749;46.296;7.524;2023-03-21T07:59:31;95108.94;;;12.02;49.04
21182;BME280;10749;46.296;7.524;2023-03-21T08:01:56;95104.63;;;12.01;48.54
21182;BME280;10749;46.296;7.524;2023-03-21T08:04:22;95100.81;;;12.03;48.75
21182;BME280;10749;46.296;7.524;2023-03-21T08:06:49;95105.47;;;12.01;48.38
21182;BME280;10749;46.296;7.524;2023-03-21T08:09:15;95107.78;;;12.05;48.32
21182;BME280;10749;46.296;7.524;2023-03-21T08:11:40;95103.00;;;12.15;48.68
21182;BME280;10749;46.296;7.524;2023-03-21T08:14:05;95108.75;;;12.18;48.50
21182;BME280;10749;46.296;7.524;2023-03-21T08:16:31;95106.78;;;12.20;48.63
21182;BME280;10749;46.296;7.524;2023-03-21T08:18:56;95110.69;;;12.24;48.49
21182;BME280;10749;46.296;7.524;2023-03-21T08:21:21;95104.84;;;12.29;48.52
21182;BME280;10749;46.296;7.524;2023-03-21T08:23:47;95101.19;;;12.30;48.29
21182;BME280;10749;46.296;7.524;2023-03-21T08:26:12;95099.34;;;12.30;48.45
21182;BME280;10749;46.296;7.524;2023-03-21T08:28:40;95098.91;;;12.41;48.66
21182;BME280;10749;46.296;7.524;2023-03-21T08:31:06;95105.94;;;12.49;48.33
21182;BME280;10749;46.296;7.524;2023-03-21T08:33:32;95101.25;;;12.51;48.41
21182;BME280;10749;46.296;7.524;2023-03-21T08:35:59;95105.16;;;12.55;48.26
21182;BME280;10749;46.296;7.524;2023-03-21T08:38:24;95094.56;;;12.55;48.49
21182;BME280;10749;46.296;7.524;2023-03-21T08:40:53;95092.56;;;12.57;48.04
21182;BME280;10749;46.296;7.524;2023-03-21T08:43:19;95099.41;;;12.66;48.03
21182;BME280;10749;46.296;7.524;2023-03-21T08:45:44;95101.41;;;12.79;48.24
21182;BME280;10749;46.296;7.524;2023-03-21T08:48:10;95094.88;;;12.81;48.37
21182;BME280;10749;46.296;7.524;2023-03-21T08:50:35;95089.34;;;12.98;48.14
21182;BME280;10749;46.296;7.524;2023-03-21T08:53:00;95095.53;;;13.05;48.03
21182;BME280;10749;46.296;7.524;2023-03-21T08:55:26;95095.66;;;13.11;47.84
21182;BME280;10749;46.296;7.524;2023-03-21T08:57:51;95096.09;;;13.15;48.18
21182;BME280;10749;46.296;7.524;2023-03-21T09:00:17;95088.00;;;13.23;48.15
21182;BME280;10749;46.296;7.524;2023-03-21T09:02:45;95086.47;;;13.35;48.15
21182;BME280;10749;46.296;7.524;2023-03-21T09:05:13;95076.13;;;13.47;48.00
21182;BME280;10749;46.296;7.524;2023-03-21T09:07:40;95079.00;;;13.45;47.44
21182;BME280;10749;46.296;7.524;2023-03-21T09:10:07;95073.47;;;13.47;47.58
21182;BME280;10749;46.296;7.524;2023-03-21T09:12:34;95076.41;;;13.52;47.48
21182;BME280;10749;46.296;7.524;2023-03-21T09:14:59;95071.94;;;13.59;47.45
21182;BME280;10749;46.296;7.524;2023-03-21T09:17:27;95068.81;;;13.76;47.68
21182;BME280;10749;46.296;7.524;2023-03-21T09:19:53;95067.50;;;13.94;47.65
21182;BME280;10749;46.296;7.524;2023-03-21T09:22:18;95060.88;;;14.11;47.77
21182;BME280;10749;46.296;7.524;2023-03-21T09:24:46;95062.94;;;14.15;47.31
21182;BME280;10749;46.296;7.524;2023-03-21T09:27:14;95053.81;;;14.31;47.72
21182;BME280;10749;46.296;7.524;2023-03-21T09:29:41;95054.53;;;14.46;47.43
21182;BME280;10749;46.296;7.524;2023-03-21T09:32:09;95053.50;;;14.47;47.29
21182;BME280;10749;46.296;7.524;2023-03-21T09:34:37;95052.50;;;14.48;47.31
21182;BME280;10749;46.296;7.524;2023-03-21T09:37:06;95053.50;;;14.47;46.92
21182;BME280;10749;46.296;7.524;2023-03-21T09:39:35;95039.00;;;14.56;47.28
21182;BME280;10749;46.296;7.524;2023-03-21T09:44:44;95040.31;;;14.80;46.72
21182;BME280;10749;46.296;7.524;2023-03-21T09:47:24;95032.16;;;14.95;47.02
21182;BME280;10749;46.296;7.524;2023-03-21T09:50:02;95024.78;;;15.03;46.74
21182;BME280;10749;46.296;7.524;2023-03-21T09:55:04;95017.00;;;15.21;46.50
21182;BME280;10749;46.296;7.524;2023-03-21T09:57:44;95002.44;;;15.37;46.87
21182;BME280;10749;46.296;7.524;2023-03-21T10:00:15;95010.28;;;15.58;46.70
21182;BME280;10749;46.296;7.524;2023-03-21T10:02:48;95002.28;;;15.72;46.74
21182;BME280;10749;46.296;7.524;2023-03-21T10:05:22;94996.09;;;15.84;46.56
21182;BME280;10749;46.296;7.524;2023-03-21T10:08:12;94991.78;;;15.90;46.12
21182;BME280;10749;46.296;7.524;2023-03-21T10:10:44;94984.56;;;15.97;46.43
21182;BME280;10749;46.296;7.524;2023-03-21T10:13:16;94986.03;;;15.93;46.03
21182;BME280;10749;46.296;7.524;2023-03-21T10:15:44;94967.34;;;15.86;45.69
21182;BME280;10749;46.296;7.524;2023-03-21T10:18:14;94977.59;;;16.02;45.70
21182;BME280;10749;46.296;7.524;2023-03-21T10:20:43;94966.03;;;16.22;45.58
21182;BME280;10749;46.296;7.524;2023-03-21T10:23:14;94964.41;;;16.07;44.71
21182;BME280;10749;46.296;7.524;2023-03-21T10:25:42;94966.84;;;16.22;45.22
21182;BME280;10749;46.296;7.524;2023-03-21T10:28:15;94966.38;;;16.38;44.86
21182;BME280;10749;46.296;7.524;2023-03-21T10:30:45;94965.69;;;16.49;45.29
21182;BME280;10749;46.296;7.524;2023-03-21T10:33:40;94962.78;;;16.57;45.17
21182;BME280;10749;46.296;7.524;2023-03-21T10:36:09;94964.63;;;16.64;44.73
21182;BME280;10749;46.296;7.524;2023-03-21T10:38:39;94957.63;;;16.63;44.93
21182;BME280;10749;46.296;7.524;2023-03-21T10:41:09;94945.88;;;16.70;44.80
21182;BME280;10749;46.296;7.524;2023-03-21T10:43:37;94948.16;;;16.67;44.37
21182;BME280;10749;46.296;7.524;2023-03-21T10:46:11;94944.78;;;16.78;44.67
21182;BME280;10749;46.296;7.524;2023-03-21T10:48:39;94943.03;;;16.96;44.80
21182;BME280;10749;46.296;7.524;2023-03-21T10:51:07;94950.06;;;17.22;44.49
21182;BME280;10749;46.296;7.524;2023-03-21T10:53:45;94932.47;;;17.33;44.62
21182;BME280;10749;46.296;7.524;2023-03-21T10:56:11;94932.84;;;17.36;44.28
21182;BME280;10749;46.296;7.524;2023-03-21T10:58:42;94929.47;;;17.47;44.33
21182;BME280;10749;46.296;7.524;2023-03-21T11:01:10;94930.50;;;17.71;44.36
21182;BME280;10749;46.296;7.524;2023-03-21T11:03:43;94925.03;;;17.84;44.42
21182;BME280;10749;46.296;7.524;2023-03-21T11:09:08;94915.34;;;18.02;43.99
21182;BME280;10749;46.296;7.524;2023-03-21T11:11:37;94912.75;;;18.13;43.78
21182;BME280;10749;46.296;7.524;2023-03-21T11:14:06;94910.34;;;18.23;43.74
21182;BME280;10749;46.296;7.524;2023-03-21T11:16:41;94902.75;;;18.38;43.82
21182;BME280;10749;46.296;7.524;2023-03-21T11:19:15;94899.00;;;18.58;43.81
21182;BME280;10749;46.296;7.524;2023-03-21T11:21:42;94900.84;;;18.75;43.76
21182;BME280;10749;46.296;7.524;2023-03-21T11:24:13;94893.84;;;18.86;43.38
21182;BME280;10749;46.296;7.524;2023-03-21T11:26:41;94895.16;;;18.95;43.41
21182;BME280;10749;46.296;7.524;2023-03-21T11:29:19;94890.50;;;19.02;43.49
21182;BME280;10749;46.296;7.524;2023-03-21T11:31:47;94887.28;;;19.12;43.11
21182;BME280;10749;46.296;7.524;2023-03-21T11:34:24;94886.22;;;19.13;42.99
21182;BME280;10749;46.296;7.524;2023-03-21T11:36:52;94883.09;;;19.27;43.10
21182;BME280;10749;46.296;7.524;2023-03-21T11:39:33;94878.88;;;19.31;42.41
21182;BME280;10749;46.296;7.524;2023-03-21T11:42:01;94883.34;;;19.38;42.67
21182;BME280;10749;46.296;7.524;2023-03-21T11:44:41;94878.56;;;19.51;42.51
21182;BME280;10749;46.296;7.524;2023-03-21T11:47:09;94861.88;;;19.61;42.81
21182;BME280;10749;46.296;7.524;2023-03-21T11:49:35;94860.22;;;19.71;42.51
21182;BME280;10749;46.296;7.524;2023-03-21T11:52:15;94856.25;;;19.86;42.51
21182;BME280;10749;46.296;7.524;2023-03-21T11:57:42;94839.31;;;19.85;42.47
21182;BME280;10749;46.296;7.524;2023-03-21T12:00:28;94833.63;;;19.70;41.84
21182;BME280;10749;46.296;7.524;2023-03-21T12:06:00;94819.25;;;19.88;41.94
21182;BME280;10749;46.296;7.524;2023-03-21T12:08:55;94818.00;;;20.07;41.79
21182;BME280;10749;46.296;7.524;2023-03-21T12:14:22;94810.88;;;20.12;41.41
21182;BME280;10749;46.296;7.524;2023-03-21T12:16:56;94807.31;;;20.23;41.15
21182;BME280;10749;46.296;7.524;2023-03-21T12:19:54;94800.22;;;20.46;41.21
21182;BME280;10749;46.296;7.524;2023-03-21T12:25:21;94787.03;;;20.44;40.37
21182;BME280;10749;46.296;7.524;2023-03-21T12:30:53;94782.09;;;19.85;38.32
21182;BME280;10749;46.296;7.524;2023-03-21T12:33:44;94780.34;;;20.18;39.12
21182;BME280;10749;46.296;7.524;2023-03-21T12:36:26;94767.97;;;20.46;39.42
21182;BME280;10749;46.296;7.524;2023-03-21T12:39:07;94765.06;;;20.64;39.53
21182;BME280;10749;46.296;7.524;2023-03-21T12:41:43;94753.81;;;21.00;39.60
21182;BME280;10749;46.296;7.524;2023-03-21T12:44:16;94755.63;;;21.11;39.53
21182;BME280;10749;46.296;7.524;2023-03-21T12:46:46;94753.25;;;21.32;39.46
21182;BME280;10749;46.296;7.524;2023-03-21T12:49:29;94750.63;;;21.58;39.57
21182;BME280;10749;46.296;7.524;2023-03-21T12:52:01;94751.84;;;21.89;39.63
21182;BME280;10749;46.296;7.524;2023-03-21T12:54:33;94741.53;;;22.03;39.47
21182;BME280;10749;46.296;7.524;2023-03-21T12:57:20;94740.28;;;22.16;39.36
21182;BME280;10749;46.296;7.524;2023-03-21T12:59:59;94740.00;;;22.39;39.64
21182;BME280;10749;46.296;7.524;2023-03-21T13:02:37;94741.19;;;22.53;39.25
21182;BME280;10749;46.296;7.524;2023-03-21T13:05:32;94730.63;;;22.46;38.17
21182;BME280;10749;46.296;7.524;2023-03-21T13:08:14;94720.72;;;22.57;38.49
21182;BME280;10749;46.296;7.524;2023-03-21T13:10:43;94724.56;;;22.93;38.43
21182;BME280;10749;46.296;7.524;2023-03-21T13:13:30;94723.91;;;23.13;38.79
21182;BME280;10749;46.296;7.524;2023-03-21T13:18:47;94724.22;;;22.52;35.89
21182;BME280;10749;46.296;7.524;2023-03-21T13:26:54;94708.25;;;22.73;35.77
21182;BME280;10749;46.296;7.524;2023-03-21T13:29:32;94713.25;;;22.96;36.79
21182;BME280;10749;46.296;7.524;2023-03-21T13:32:06;94704.72;;;22.72;34.67
21182;BME280;10749;46.296;7.524;2023-03-21T13:34:32;94693.19;;;22.82;36.05
21182;BME280;10749;46.296;7.524;2023-03-21T13:36:59;94695.22;;;22.38;32.66
21182;BME280;10749;46.296;7.524;2023-03-21T13:39:27;94696.44;;;22.52;35.42
21182;BME280;10749;46.296;7.524;2023-03-21T13:41:53;94696.34;;;22.69;36.53
21182;BME280;10749;46.296;7.524;2023-03-21T13:44:52;94686.50;;;22.89;36.29
21182;BME280;10749;46.296;7.524;2023-03-21T13:47:29;94678.50;;;23.05;36.41
21182;BME280;10749;46.296;7.524;2023-03-21T13:55:40;94673.78;;;22.21;35.45
21182;BME280;10749;46.296;7.524;2023-03-21T14:03:45;94675.69;;;22.26;34.43
21182;BME280;10749;46.296;7.524;2023-03-21T14:06:12;94670.84;;;22.23;35.21
21182;BME280;10749;46.296;7.524;2023-03-21T14:08:40;94669.41;;;22.15;35.61
21182;BME280;10749;46.296;7.524;2023-03-21T14:11:12;94664.41;;;22.29;35.67
21182;BME280;10749;46.296;7.524;2023-03-21T14:13:41;94658.00;;;22.35;35.33
21182;BME280;10749;46.296;7.524;2023-03-21T14:16:13;94654.59;;;22.18;34.64
21182;BME280;10749;46.296;7.524;2023-03-21T14:18:45;94659.19;;;22.49;34.95